sensor_id;sensor_type;location;lat;lon;timestamp;temperature;humidity
3418;DHT22;68007;51.312;12.372;2023-04-24T00:02:22;15.70;95.50
3418;DHT22;68007;51.312;12.372;2023-04-24T00:04:50;15.70;95.60
3418;DHT22;68007;51.312;12.372;2023-04-24T00:07:17;15.80;95.10
3418;DHT22;68007;51.312;12.372;2023-04-24T00:09:46;15.90;94.00
3418;DHT22;68007;51.312;12.372;2023-04-24T00:12:14;15.90;95.50
3418;DHT22;68007;51.312;12.372;2023-04-24T00:14:41;15.90;95.40
3418;DHT22;68007;51.312;12.372;2023-04-24T00:17:10;15.70;95.70
3418;DHT22;68007;51.312;12.372;2023-04-24T00:19:38;15.70;95.90
3418;DHT22;68007;51.312;12.372;2023-04-24T00:22:05;15.70;95.70
3418;DHT22;68007;51.312;12.372;2023-04-24T00:24:33;15.70;96.10
3418;DHT22;68007;51.312;12.372;2023-04-24T00:27:01;15.50;96.30
3418;DHT22;68007;51.312;12.372;2023-04-24T00:29:28;15.50;96.60
3418;DHT22;68007;51.312;12.372;2023-04-24T00:31:56;15.40;96.80
3418;DHT22;68007;51.312;12.372;2023-04-24T00:34:25;15.30;97.10
3418;DHT22;68007;51.312;12.372;2023-04-24T00:36:52;15.40;96.90
3418;DHT22;68007;51.312;12.372;2023-04-24T00:39:21;15.40;96.80
3418;DHT22;68007;51.312;12.372;2023-04-24T00:41:49;15.30;97.40
3418;DHT22;68007;51.312;12.372;2023-04-24T00:44:17;15.30;97.40
3418;DHT22;68007;51.312;12.372;2023-04-24T00:46:45;15.10;97.70
3418;DHT22;68007;51.312;12.372;2023-04-24T00:49:13;15.20;97.70
3418;DHT22;68007;51.312;12.372;2023-04-24T00:51:42;15.10;98.10
3418;DHT22;68007;51.312;12.372;2023-04-24T00:54:11;15.10;98.00
3418;DHT22;68007;51.312;12.372;2023-04-24T00:56:39;15.30;97.10
3418;DHT22;68007;51.312;12.372;2023-04-24T00:59:07;15.30;96.80
3418;DHT22;68007;51.312;12.372;2023-04-24T01:01:35;15.30;97.20
3418;DHT22;68007;51.312;12.372;2023-04-24T01:04:03;15.40;96.90
3418;DHT22;68007;51.312;12.372;2023-04-24T01:06:34;15.10;97.70
3418;DHT22;68007;51.312;12.372;2023-04-24T01:09:03;15.00;97.90
3418;DHT22;68007;51.312;12.372;2023-04-24T01:11:31;15.00;97.30
3418;DHT22;68007;51.312;12.372;2023-04-24T01:13:58;15.00;97.50
3418;DHT22;68007;51.312;12.372;2023-04-24T01:16:26;14.90;97.50
3418;DHT22;68007;51.312;12.372;2023-04-24T01:18:54;14.80;97.30
3418;DHT22;68007;51.312;12.372;2023-04-24T01:21:23;14.60;97.80
3418;DHT22;68007;51.312;12.372;2023-04-24T01:23:55;14.60;97.30
3418;DHT22;68007;51.312;12.372;2023-04-24T01:26:23;14.50;97.70
3418;DHT22;68007;51.312;12.372;2023-04-24T01:28:51;14.60;97.60
3418;DHT22;68007;51.312;12.372;2023-04-24T01:31:20;14.50;97.80
3418;DHT22;68007;51.312;12.372;2023-04-24T01:33:47;14.40;97.80
3418;DHT22;68007;51.312;12.372;2023-04-24T01:36:16;14.50;97.80
3418;DHT22;68007;51.312;12.372;2023-04-24T01:38:44;14.30;98.30
3418;DHT22;68007;51.312;12.372;2023-04-24T01:41:13;14.20;98.20
3418;DHT22;68007;51.312;12.372;2023-04-24T01:43:40;14.20;98.40
3418;DHT22;68007;51.312;12.372;2023-04-24T01:46:08;14.20;98.40
3418;DHT22;68007;51.312;12.372;2023-04-24T01:48:35;14.30;98.30
3418;DHT22;68007;51.312;12.372;2023-04-24T01:51:03;14.20;98.40
3418;DHT22;68007;51.312;12.372;2023-04-24T01:53:31;13.90;98.90
3418;DHT22;68007;51.312;12.372;2023-04-24T01:55:58;14.10;98.10
3418;DHT22;68007;51.312;12.372;2023-04-24T01:58:27;14.20;98.30
3418;DHT22;68007;51.312;12.372;2023-04-24T02:00:56;14.30;97.90
3418;DHT22;68007;51.312;12.372;2023-04-24T02:03:24;14.20;98.10
3418;DHT22;68007;51.312;12.372;2023-04-24T02:05:52;14.10;98.20
3418;DHT22;68007;51.312;12.372;2023-04-24T02:08:19;14.00;98.20
3418;DHT22;68007;51.312;12.372;2023-04-24T02:10:47;14.20;97.90
3418;DHT22;68007;51.312;12.372;2023-04-24T02:13:14;14.20;97.90
3418;DHT22;68007;51.312;12.372;2023-04-24T02:15:43;14.00;98.20
3418;DHT22;68007;51.312;12.372;2023-04-24T02:18:10;14.00;98.20
3418;DHT22;68007;51.312;12.372;2023-04-24T02:20:39;14.00;98.30
3418;DHT22;68007;51.312;12.372;2023-04-24T02:23:06;14.00;98.20
3418;DHT22;68007;51.312;12.372;2023-04-24T02:25:34;14.00;98.00
3418;DHT22;68007;51.312;12.372;2023-04-24T02:28:01;14.00;97.80
3418;DHT22;68007;51.312;12.372;2023-04-24T02:30:29;14.10;97.80
3418;DHT22;68007;51.312;12.372;2023-04-24T02:32:58;14.20;97.60
3418;DHT22;68007;51.312;12.372;2023-04-24T02:35:25;14.10;97.80
3418;DHT22;68007;51.312;12.372;2023-04-24T02:37:53;13.90;98.30
3418;DHT22;68007;51.312;12.372;2023-04-24T02:40:20;13.90;97.90
3418;DHT22;68007;51.312;12.372;2023-04-24T02:42:48;13.80;98.20
3418;DHT22;68007;51.312;12.372;2023-04-24T02:45:16;13.90;97.90
3418;DHT22;68007;51.312;12.372;2023-04-24T02:47:43;13.90;98.00
3418;DHT22;68007;51.312;12.372;2023-04-24T02:50:12;14.00;97.90
3418;DHT22;68007;51.312;12.372;2023-04-24T02:52:40;13.90;97.70
3418;DHT22;68007;51.312;12.372;2023-04-24T02:55:08;13.80;98.00
3418;DHT22;68007;51.312;12.372;2023-04-24T02:57:35;13.70;97.80
3418;DHT22;68007;51.312;12.372;2023-04-24T03:00:03;13.80;97.80
3418;DHT22;68007;51.312;12.372;2023-04-24T03:02:33;13.70;97.90
3418;DHT22;68007;51.312;12.372;2023-04-24T03:05:01;13.60;98.10
3418;DHT22;68007;51.312;12.372;2023-04-24T03:07:30;13.60;98.10
3418;DHT22;68007;51.312;12.372;2023-04-24T03:09:58;13.60;97.80
3418;DHT22;68007;51.312;12.372;2023-04-24T03:12:25;13.50;98.10
3418;DHT22;68007;51.312;12.372;2023-04-24T03:14:53;13.50;98.10
3418;DHT22;68007;51.312;12.372;2023-04-24T03:17:20;13.40;98.00
3418;DHT22;68007;51.312;12.372;2023-04-24T03:19:48;13.50;98.10
3418;DHT22;68007;51.312;12.372;2023-04-24T03:22:16;13.30;98.40
3418;DHT22;68007;51.312;12.372;2023-04-24T03:24:44;13.10;99.10
3418;DHT22;68007;51.312;12.372;2023-04-24T03:27:12;13.10;98.90
3418;DHT22;68007;51.312;12.372;2023-04-24T03:29:39;13.10;98.80
3418;DHT22;68007;51.312;12.372;2023-04-24T03:32:07;13.10;98.70
3418;DHT22;68007;51.312;12.372;2023-04-24T03:34:34;13.10;98.70
3418;DHT22;68007;51.312;12.372;2023-04-24T03:37:02;13.10;98.60
3418;DHT22;68007;51.312;12.372;2023-04-24T03:39:30;13.00;98.50
3418;DHT22;68007;51.312;12.372;2023-04-24T03:41:58;12.90;98.80
3418;DHT22;68007;51.312;12.372;2023-04-24T03:44:26;13.00;98.80
3418;DHT22;68007;51.312;12.372;2023-04-24T03:46:54;12.80;99.20
3418;DHT22;68007;51.312;12.372;2023-04-24T03:49:21;12.90;99.20
3418;DHT22;68007;51.312;12.372;2023-04-24T03:51:49;12.80;99.20
3418;DHT22;68007;51.312;12.372;2023-04-24T03:54:17;12.90;99.00
3418;DHT22;68007;51.312;12.372;2023-04-24T03:56:44;12.70;99.40
3418;DHT22;68007;51.312;12.372;2023-04-24T03:59:13;12.70;99.50
3418;DHT22;68007;51.312;12.372;2023-04-24T04:01:41;12.70;99.50
3418;DHT22;68007;51.312;12.372;2023-04-24T04:04:08;12.80;99.30
3418;DHT22;68007;51.312;12.372;2023-04-24T04:06:36;12.90;99.00
3418;DHT22;68007;51.312;12.372;2023-04-24T04:09:03;12.90;99.00
3418;DHT22;68007;51.312;12.372;2023-04-24T04:11:31;12.90;98.90
3418;DHT22;68007;51.312;12.372;2023-04-24T04:13:58;12.90;98.90
3418;DHT22;68007;51.312;12.372;2023-04-24T04:16:27;12.80;98.90
3418;DHT22;68007;51.312;12.372;2023-04-24T04:18:55;12.80;99.00
3418;DHT22;68007;51.312;12.372;2023-04-24T04:21:22;12.90;99.00
3418;DHT22;68007;51.312;12.372;2023-04-24T04:23:50;12.80;99.00
3418;DHT22;68007;51.312;12.372;2023-04-24T04:26:18;12.80;99.10
3418;DHT22;68007;51.312;12.372;2023-04-24T04:28:47;12.80;99.00
3418;DHT22;68007;51.312;12.372;2023-04-24T04:31:15;12.80;99.00
3418;DHT22;68007;51.312;12.372;2023-04-24T04:33:44;12.90;98.70
3418;DHT22;68007;51.312;12.372;2023-04-24T04:36:11;12.80;99.10
3418;DHT22;68007;51.312;12.372;2023-04-24T04:38:39;12.70;99.50
3418;DHT22;68007;51.312;12.372;2023-04-24T04:41:06;12.60;99.40
3418;DHT22;68007;51.312;12.372;2023-04-24T04:43:34;12.70;99.20
3418;DHT22;68007;51.312;12.372;2023-04-24T04:46:02;12.90;99.00
3418;DHT22;68007;51.312;12.372;2023-04-24T04:48:30;13.00;98.50
3418;DHT22;68007;51.312;12.372;2023-04-24T04:51:00;13.00;98.50
3418;DHT22;68007;51.312;12.372;2023-04-24T04:53:27;13.10;98.40
3418;DHT22;68007;51.312;12.372;2023-04-24T04:55:55;13.20;98.10
3418;DHT22;68007;51.312;12.372;2023-04-24T04:58:22;13.30;97.40
3418;DHT22;68007;51.312;12.372;2023-04-24T05:00:50;13.50;97.50
3418;DHT22;68007;51.312;12.372;2023-04-24T05:03:18;13.30;98.00
3418;DHT22;68007;51.312;12.372;2023-04-24T05:05:45;12.90;98.60
3418;DHT22;68007;51.312;12.372;2023-04-24T05:08:14;12.80;98.90
3418;DHT22;68007;51.312;12.372;2023-04-24T05:10:42;12.70;99.20
3418;DHT22;68007;51.312;12.372;2023-04-24T05:13:09;12.70;99.30
3418;DHT22;68007;51.312;12.372;2023-04-24T05:15:37;12.90;98.70
3418;DHT22;68007;51.312;12.372;2023-04-24T05:18:04;12.90;98.90
3418;DHT22;68007;51.312;12.372;2023-04-24T05:20:32;12.90;98.80
3418;DHT22;68007;51.312;12.372;2023-04-24T05:22:59;13.00;98.80
3418;DHT22;68007;51.312;12.372;2023-04-24T05:25:28;12.80;99.00
3418;DHT22;68007;51.312;12.372;2023-04-24T05:27:58;12.60;99.40
3418;DHT22;68007;51.312;12.372;2023-04-24T05:30:25;12.70;99.50
3418;DHT22;68007;51.312;12.372;2023-04-24T05:32:53;12.80;99.20
3418;DHT22;68007;51.312;12.372;2023-04-24T05:35:20;13.00;98.90
3418;DHT22;68007;51.312;12.372;2023-04-24T05:37:48;13.10;98.70
3418;DHT22;68007;51.312;12.372;2023-04-24T05:40:16;13.10;98.60
3418;DHT22;68007;51.312;12.372;2023-04-24T05:42:44;13.20;98.50
3418;DHT22;68007;51.312;12.372;2023-04-24T05:45:12;13.20;98.40
3418;DHT22;68007;51.312;12.372;2023-04-24T05:47:43;13.20;98.40
3418;DHT22;68007;51.312;12.372;2023-04-24T05:50:11;13.00;98.70
3418;DHT22;68007;51.312;12.372;2023-04-24T05:52:39;13.10;98.70
3418;DHT22;68007;51.312;12.372;2023-04-24T05:55:07;13.00;98.70
3418;DHT22;68007;51.312;12.372;2023-04-24T05:57:34;13.00;98.70
3418;DHT22;68007;51.312;12.372;2023-04-24T06:00:04;13.00;98.70
3418;DHT22;68007;51.312;12.372;2023-04-24T06:02:34;13.20;98.20
3418;DHT22;68007;51.312;12.372;2023-04-24T06:05:02;13.20;98.30
3418;DHT22;68007;51.312;12.372;2023-04-24T06:07:30;13.20;98.20
3418;DHT22;68007;51.312;12.372;2023-04-24T06:09:58;13.40;98.00
3418;DHT22;68007;51.312;12.372;2023-04-24T06:12:26;13.40;97.90
3418;DHT22;68007;51.312;12.372;2023-04-24T06:14:54;13.40;97.90
3418;DHT22;68007;51.312;12.372;2023-04-24T06:17:23;13.20;98.20
3418;DHT22;68007;51.312;12.372;2023-04-24T06:19:50;13.20;98.20
3418;DHT22;68007;51.312;12.372;2023-04-24T06:22:18;13.10;98.20
3418;DHT22;68007;51.312;12.372;2023-04-24T06:24:45;13.20;98.30
3418;DHT22;68007;51.312;12.372;2023-04-24T06:27:14;13.20;98.20
3418;DHT22;68007;51.312;12.372;2023-04-24T06:29:41;13.20;98.40
3418;DHT22;68007;51.312;12.372;2023-04-24T06:32:09;13.10;98.60
3418;DHT22;68007;51.312;12.372;2023-04-24T06:34:38;12.90;98.90
3418;DHT22;68007;51.312;12.372;2023-04-24T06:37:05;13.00;98.90
3418;DHT22;68007;51.312;12.372;2023-04-24T06:39:33;13.10;99.00
3418;DHT22;68007;51.312;12.372;2023-04-24T06:42:01;13.10;98.90
3418;DHT22;68007;51.312;12.372;2023-04-24T06:44:28;13.20;98.70
3418;DHT22;68007;51.312;12.372;2023-04-24T06:46:56;13.40;98.30
3418;DHT22;68007;51.312;12.372;2023-04-24T06:49:23;13.30;98.30
3418;DHT22;68007;51.312;12.372;2023-04-24T06:51:52;13.20;98.70
3418;DHT22;68007;51.312;12.372;2023-04-24T06:54:20;13.00;99.00
3418;DHT22;68007;51.312;12.372;2023-04-24T06:56:47;13.00;98.90
3418;DHT22;68007;51.312;12.372;2023-04-24T06:59:15;13.00;98.90
3418;DHT22;68007;51.312;12.372;2023-04-24T07:01:43;13.20;98.50
3418;DHT22;68007;51.312;12.372;2023-04-24T07:04:11;13.20;98.60
3418;DHT22;68007;51.312;12.372;2023-04-24T07:06:39;13.20;98.40
3418;DHT22;68007;51.312;12.372;2023-04-24T07:09:08;13.20;98.30
3418;DHT22;68007;51.312;12.372;2023-04-24T07:11:35;13.30;98.40
3418;DHT22;68007;51.312;12.372;2023-04-24T07:14:05;13.30;98.00
3418;DHT22;68007;51.312;12.372;2023-04-24T07:16:32;13.30;98.00
3418;DHT22;68007;51.312;12.372;2023-04-24T07:19:00;13.40;97.90
3418;DHT22;68007;51.312;12.372;2023-04-24T07:21:27;13.40;97.70
3418;DHT22;68007;51.312;12.372;2023-04-24T07:23:55;13.40;97.70
3418;DHT22;68007;51.312;12.372;2023-04-24T07:26:24;13.40;97.90
3418;DHT22;68007;51.312;12.372;2023-04-24T07:28:52;13.30;98.00
3418;DHT22;68007;51.312;12.372;2023-04-24T07:31:20;13.40;97.90
3418;DHT22;68007;51.312;12.372;2023-04-24T07:33:48;13.50;97.70
3418;DHT22;68007;51.312;12.372;2023-04-24T07:36:16;13.40;97.90
3418;DHT22;68007;51.312;12.372;2023-04-24T07:38:45;13.50;97.70
3418;DHT22;68007;51.312;12.372;2023-04-24T07:41:12;13.70;97.50
3418;DHT22;68007;51.312;12.372;2023-04-24T07:43:41;13.80;96.80
3418;DHT22;68007;51.312;12.372;2023-04-24T07:46:09;13.70;96.90
3418;DHT22;68007;51.312;12.372;2023-04-24T07:48:37;13.80;97.00
3418;DHT22;68007;51.312;12.372;2023-04-24T07:51:04;13.90;96.90
3418;DHT22;68007;51.312;12.372;2023-04-24T07:53:32;13.80;96.70
3418;DHT22;68007;51.312;12.372;2023-04-24T07:55:59;13.90;96.50
3418;DHT22;68007;51.312;12.372;2023-04-24T07:58:27;13.90;96.50
3418;DHT22;68007;51.312;12.372;2023-04-24T08:00:55;13.90;96.40
3418;DHT22;68007;51.312;12.372;2023-04-24T08:03:23;13.90;96.20
3418;DHT22;68007;51.312;12.372;2023-04-24T08:05:50;14.10;95.90
3418;DHT22;68007;51.312;12.372;2023-04-24T08:08:20;14.20;95.50
3418;DHT22;68007;51.312;12.372;2023-04-24T08:10:49;14.40;95.00
3418;DHT22;68007;51.312;12.372;2023-04-24T08:13:16;14.40;95.10
3418;DHT22;68007;51.312;12.372;2023-04-24T08:15:44;14.50;94.80
3418;DHT22;68007;51.312;12.372;2023-04-24T08:18:13;14.40;94.40
3418;DHT22;68007;51.312;12.372;2023-04-24T08:20:41;14.30;93.90
3418;DHT22;68007;51.312;12.372;2023-04-24T08:23:09;14.40;94.00
3418;DHT22;68007;51.312;12.372;2023-04-24T08:25:36;14.50;93.40
3418;DHT22;68007;51.312;12.372;2023-04-24T08:28:05;14.50;93.50
3418;DHT22;68007;51.312;12.372;2023-04-24T08:30:33;14.70;93.30
3418;DHT22;68007;51.312;12.372;2023-04-24T08:33:00;14.80;93.50
3418;DHT22;68007;51.312;12.372;2023-04-24T08:35:29;14.90;93.70
3418;DHT22;68007;51.312;12.372;2023-04-24T08:37:57;15.00;93.30
3418;DHT22;68007;51.312;12.372;2023-04-24T08:40:27;14.90;93.20
3418;DHT22;68007;51.312;12.372;2023-04-24T08:42:56;14.90;93.10
3418;DHT22;68007;51.312;12.372;2023-04-24T08:45:24;14.90;93.00
3418;DHT22;68007;51.312;12.372;2023-04-24T08:47:53;14.80;92.00
3418;DHT22;68007;51.312;12.372;2023-04-24T08:50:21;14.70;91.50
3418;DHT22;68007;51.312;12.372;2023-04-24T08:52:51;14.70;91.70
3418;DHT22;68007;51.312;12.372;2023-04-24T08:55:20;14.70;91.40
3418;DHT22;68007;51.312;12.372;2023-04-24T08:57:50;14.70;91.40
3418;DHT22;68007;51.312;12.372;2023-04-24T09:00:20;14.70;91.10
3418;DHT22;68007;51.312;12.372;2023-04-24T09:02:49;14.80;91.20
3418;DHT22;68007;51.312;12.372;2023-04-24T09:05:17;14.80;90.90
3418;DHT22;68007;51.312;12.372;2023-04-24T09:07:49;14.80;90.60
3418;DHT22;68007;51.312;12.372;2023-04-24T09:10:18;14.70;90.70
3418;DHT22;68007;51.312;12.372;2023-04-24T09:12:46;14.80;90.80
3418;DHT22;68007;51.312;12.372;2023-04-24T09:15:14;14.90;90.70
3418;DHT22;68007;51.312;12.372;2023-04-24T09:17:42;14.90;90.50
3418;DHT22;68007;51.312;12.372;2023-04-24T09:20:10;14.80;90.80
3418;DHT22;68007;51.312;12.372;2023-04-24T09:22:38;14.80;91.00
3418;DHT22;68007;51.312;12.372;2023-04-24T09:25:06;14.80;91.10
3418;DHT22;68007;51.312;12.372;2023-04-24T09:27:36;14.70;91.10
3418;DHT22;68007;51.312;12.372;2023-04-24T09:30:08;14.70;91.40
3418;DHT22;68007;51.312;12.372;2023-04-24T09:32:36;14.60;91.40
3418;DHT22;68007;51.312;12.372;2023-04-24T09:35:09;14.60;91.90
3418;DHT22;68007;51.312;12.372;2023-04-24T09:37:37;14.50;91.90
3418;DHT22;68007;51.312;12.372;2023-04-24T09:40:15;14.50;92.20
3418;DHT22;68007;51.312;12.372;2023-04-24T09:42:45;14.50;92.20
3418;DHT22;68007;51.312;12.372;2023-04-24T09:45:13;14.30;92.50
3418;DHT22;68007;51.312;12.372;2023-04-24T09:47:41;14.30;92.60
3418;DHT22;68007;51.312;12.372;2023-04-24T09:50:10;14.30;92.20
3418;DHT22;68007;51.312;12.372;2023-04-24T09:52:42;14.30;92.30
3418;DHT22;68007;51.312;12.372;2023-04-24T09:55:12;14.30;92.00
3418;DHT22;68007;51.312;12.372;2023-04-24T09:57:49;14.40;91.50
3418;DHT22;68007;51.312;12.372;2023-04-24T10:00:24;14.50;90.80
3418;DHT22;68007;51.312;12.372;2023-04-24T10:02:57;14.60;90.30
3418;DHT22;68007;51.312;12.372;2023-04-24T10:05:27;14.60;90.30
3418;DHT22;68007;51.312;12.372;2023-04-24T10:08:00;14.80;89.60
3418;DHT22;68007;51.312;12.372;2023-04-24T10:10:28;14.90;89.20
3418;DHT22;68007;51.312;12.372;2023-04-24T10:12:58;15.00;88.90
3418;DHT22;68007;51.312;12.372;2023-04-24T10:15:26;14.90;88.00
3418;DHT22;68007;51.312;12.372;2023-04-24T10:17:54;14.90;88.20
3418;DHT22;68007;51.312;12.372;2023-04-24T10:20:23;15.00;88.40
3418;DHT22;68007;51.312;12.372;2023-04-24T10:22:51;15.00;87.20
3418;DHT22;68007;51.312;12.372;2023-04-24T10:25:20;14.90;85.90
3418;DHT22;68007;51.312;12.372;2023-04-24T10:27:49;15.00;85.30
3418;DHT22;68007;51.312;12.372;2023-04-24T10:30:19;15.00;81.70
3418;DHT22;68007;51.312;12.372;2023-04-24T10:32:47;15.20;80.90
3418;DHT22;68007;51.312;12.372;2023-04-24T10:35:16;15.30;79.00
3418;DHT22;68007;51.312;12.372;2023-04-24T10:37:48;15.40;79.20
3418;DHT22;68007;51.312;12.372;2023-04-24T10:40:18;15.50;76.90
3418;DHT22;68007;51.312;12.372;2023-04-24T10:42:47;15.50;74.30
3418;DHT22;68007;51.312;12.372;2023-04-24T10:45:20;15.30;74.50
3418;DHT22;68007;51.312;12.372;2023-04-24T10:47:58;15.40;74.10
3418;DHT22;68007;51.312;12.372;2023-04-24T10:50:27;15.40;74.70
3418;DHT22;68007;51.312;12.372;2023-04-24T10:53:06;15.50;74.00
3418;DHT22;68007;51.312;12.372;2023-04-24T10:55:41;15.50;73.50
3418;DHT22;68007;51.312;12.372;2023-04-24T10:58:10;15.60;73.90
3418;DHT22;68007;51.312;12.372;2023-04-24T11:00:40;15.60;73.30
3418;DHT22;68007;51.312;12.372;2023-04-24T11:03:22;15.70;73.40
3418;DHT22;68007;51.312;12.372;2023-04-24T11:05:53;15.80;66.90
3418;DHT22;68007;51.312;12.372;2023-04-24T11:08:27;15.80;68.00
3418;DHT22;68007;51.312;12.372;2023-04-24T11:11:03;15.90;69.40
3418;DHT22;68007;51.312;12.372;2023-04-24T11:14:03;15.90;70.20
3418;DHT22;68007;51.312;12.372;2023-04-24T11:16:34;15.60;70.70
3418;DHT22;68007;51.312;12.372;2023-04-24T11:19:05;15.50;71.70
3418;DHT22;68007;51.312;12.372;2023-04-24T11:21:40;15.40;71.00
3418;DHT22;68007;51.312;12.372;2023-04-24T11:24:29;15.30;71.60
3418;DHT22;68007;51.312;12.372;2023-04-24T11:26:59;15.50;70.80
3418;DHT22;68007;51.312;12.372;2023-04-24T11:29:44;15.60;68.70
3418;DHT22;68007;51.312;12.372;2023-04-24T11:32:24;15.80;66.80
3418;DHT22;68007;51.312;12.372;2023-04-24T11:34:53;15.80;65.50
3418;DHT22;68007;51.312;12.372;2023-04-24T11:37:22;15.90;65.00
3418;DHT22;68007;51.312;12.372;2023-04-24T11:39:54;16.00;65.00
3418;DHT22;68007;51.312;12.372;2023-04-24T11:42:22;15.80;64.00
3418;DHT22;68007;51.312;12.372;2023-04-24T11:44:51;15.70;64.10
3418;DHT22;68007;51.312;12.372;2023-04-24T11:47:27;15.70;64.80
3418;DHT22;68007;51.312;12.372;2023-04-24T11:49:54;15.80;65.10
3418;DHT22;68007;51.312;12.372;2023-04-24T11:52:22;15.80;64.60
3418;DHT22;68007;51.312;12.372;2023-04-24T11:54:49;15.80;65.10
3418;DHT22;68007;51.312;12.372;2023-04-24T11:57:19;15.70;64.40
3418;DHT22;68007;51.312;12.372;2023-04-24T11:59:47;15.60;64.90
3418;DHT22;68007;51.312;12.372;2023-04-24T12:02:22;15.70;65.30
3418;DHT22;68007;51.312;12.372;2023-04-24T12:04:51;16.10;65.80
3418;DHT22;68007;51.312;12.372;2023-04-24T12:07:18;16.40;63.40
3418;DHT22;68007;51.312;12.372;2023-04-24T12:09:47;16.50;62.30
3418;DHT22;68007;51.312;12.372;2023-04-24T12:12:16;16.20;61.30
3418;DHT22;68007;51.312;12.372;2023-04-24T12:14:46;16.00;60.70
3418;DHT22;68007;51.312;12.372;2023-04-24T12:17:14;15.90;61.00
3418;DHT22;68007;51.312;12.372;2023-04-24T12:19:47;16.00;61.00
3418;DHT22;68007;51.312;12.372;2023-04-24T12:22:15;16.10;61.90
3418;DHT22;68007;51.312;12.372;2023-04-24T12:24:59;16.20;61.80
3418;DHT22;68007;51.312;12.372;2023-04-24T12:27:31;16.30;62.70
3418;DHT22;68007;51.312;12.372;2023-04-24T12:30:04;16.30;62.40
3418;DHT22;68007;51.312;12.372;2023-04-24T12:32:32;16.30;61.00
3418;DHT22;68007;51.312;12.372;2023-04-24T12:35:00;16.30;61.30
3418;DHT22;68007;51.312;12.372;2023-04-24T12:37:33;16.30;60.10
3418;DHT22;68007;51.312;12.372;2023-04-24T12:40:04;16.10;60.80
3418;DHT22;68007;51.312;12.372;2023-04-24T12:42:34;16.20;60.10
3418;DHT22;68007;51.312;12.372;2023-04-24T12:45:03;16.40;60.10
3418;DHT22;68007;51.312;12.372;2023-04-24T12:47:31;16.30;59.40
3418;DHT22;68007;51.312;12.372;2023-04-24T12:50:00;16.30;59.60
3418;DHT22;68007;51.312;12.372;2023-04-24T12:52:29;16.30;60.20
3418;DHT22;68007;51.312;12.372;2023-04-24T12:54:59;16.20;59.30
3418;DHT22;68007;51.312;12.372;2023-04-24T12:57:28;16.10;59.40
3418;DHT22;68007;51.312;12.372;2023-04-24T12:59:56;16.00;59.20
3418;DHT22;68007;51.312;12.372;2023-04-24T13:02:26;15.90;60.00
3418;DHT22;68007;51.312;12.372;2023-04-24T13:04:54;16.00;59.20
3418;DHT22;68007;51.312;12.372;2023-04-24T13:07:23;16.20;58.00
3418;DHT22;68007;51.312;12.372;2023-04-24T13:09:51;16.30;58.30
3418;DHT22;68007;51.312;12.372;2023-04-24T13:12:19;16.20;57.30
3418;DHT22;68007;51.312;12.372;2023-04-24T13:14:47;16.20;57.90
3418;DHT22;68007;51.312;12.372;2023-04-24T13:17:15;16.30;56.70
3418;DHT22;68007;51.312;12.372;2023-04-24T13:19:43;16.20;56.40
3418;DHT22;68007;51.312;12.372;2023-04-24T13:22:12;16.30;56.40
3418;DHT22;68007;51.312;12.372;2023-04-24T13:24:41;16.40;56.20
3418;DHT22;68007;51.312;12.372;2023-04-24T13:27:08;16.70;55.70
3418;DHT22;68007;51.312;12.372;2023-04-24T13:29:36;17.00;55.40
3418;DHT22;68007;51.312;12.372;2023-04-24T13:32:04;17.00;55.30
3418;DHT22;68007;51.312;12.372;2023-04-24T13:34:32;16.80;55.20
3418;DHT22;68007;51.312;12.372;2023-04-24T13:37:01;16.80;56.10
3418;DHT22;68007;51.312;12.372;2023-04-24T13:39:29;16.80;56.90
3418;DHT22;68007;51.312;12.372;2023-04-24T13:41:58;16.80;55.90
3418;DHT22;68007;51.312;12.372;2023-04-24T13:44:26;16.60;56.40
3418;DHT22;68007;51.312;12.372;2023-04-24T13:46:55;16.50;57.00
3418;DHT22;68007;51.312;12.372;2023-04-24T13:49:24;16.30;57.10
3418;DHT22;68007;51.312;12.372;2023-04-24T13:51:52;16.20;57.80
3418;DHT22;68007;51.312;12.372;2023-04-24T13:54:20;16.20;58.20
3418;DHT22;68007;51.312;12.372;2023-04-24T13:56:49;16.10;58.30
3418;DHT22;68007;51.312;12.372;2023-04-24T13:59:19;16.10;59.10
3418;DHT22;68007;51.312;12.372;2023-04-24T14:01:47;16.00;59.30
3418;DHT22;68007;51.312;12.372;2023-04-24T14:04:14;15.90;60.00
3418;DHT22;68007;51.312;12.372;2023-04-24T14:06:42;15.90;60.50
3418;DHT22;68007;51.312;12.372;2023-04-24T14:09:10;15.90;60.90
3418;DHT22;68007;51.312;12.372;2023-04-24T14:11:38;16.00;59.90
3418;DHT22;68007;51.312;12.372;2023-04-24T14:14:06;16.00;60.20
3418;DHT22;68007;51.312;12.372;2023-04-24T14:16:35;16.10;58.30
3418;DHT22;68007;51.312;12.372;2023-04-24T14:19:03;15.90;58.40
3418;DHT22;68007;51.312;12.372;2023-04-24T14:21:32;15.70;58.40
3418;DHT22;68007;51.312;12.372;2023-04-24T14:24:00;15.60;59.60
3418;DHT22;68007;51.312;12.372;2023-04-24T14:26:27;15.60;59.90
3418;DHT22;68007;51.312;12.372;2023-04-24T14:28:55;15.60;60.50
3418;DHT22;68007;51.312;12.372;2023-04-24T14:31:23;15.60;61.10
3418;DHT22;68007;51.312;12.372;2023-04-24T14:33:51;15.50;61.80
3418;DHT22;68007;51.312;12.372;2023-04-24T14:36:19;15.60;61.50
3418;DHT22;68007;51.312;12.372;2023-04-24T14:38:46;15.50;62.30
3418;DHT22;68007;51.312;12.372;2023-04-24T14:41:14;15.30;61.60
3418;DHT22;68007;51.312;12.372;2023-04-24T14:43:42;15.20;62.20
3418;DHT22;68007;51.312;12.372;2023-04-24T14:46:09;15.00;63.10
3418;DHT22;68007;51.312;12.372;2023-04-24T14:48:39;15.00;63.90
3418;DHT22;68007;51.312;12.372;2023-04-24T14:51:07;15.00;64.30
3418;DHT22;68007;51.312;12.372;2023-04-24T14:53:35;14.90;65.10
3418;DHT22;68007;51.312;12.372;2023-04-24T14:56:02;14.80;65.90
3418;DHT22;68007;51.312;12.372;2023-04-24T14:58:30;14.70;66.40
3418;DHT22;68007;51.312;12.372;2023-04-24T15:00:58;14.50;67.70
3418;DHT22;68007;51.312;12.372;2023-04-24T15:03:25;14.40;68.80
3418;DHT22;68007;51.312;12.372;2023-04-24T15:05:53;14.20;70.00
3418;DHT22;68007;51.312;12.372;2023-04-24T15:08:22;14.20;68.90
3418;DHT22;68007;51.312;12.372;2023-04-24T15:10:50;14.10;68.90
3418;DHT22;68007;51.312;12.372;2023-04-24T15:13:17;14.10;68.30
3418;DHT22;68007;51.312;12.372;2023-04-24T15:15:46;13.90;68.80
3418;DHT22;68007;51.312;12.372;2023-04-24T15:18:14;14.10;69.90
3418;DHT22;68007;51.312;12.372;2023-04-24T15:20:41;14.30;68.70
3418;DHT22;68007;51.312;12.372;2023-04-24T15:23:09;14.20;69.30
3418;DHT22;68007;51.312;12.372;2023-04-24T15:25:38;14.10;69.80
3418;DHT22;68007;51.312;12.372;2023-04-24T15:28:06;14.10;70.30
3418;DHT22;68007;51.312;12.372;2023-04-24T15:30:33;14.00;70.90
3418;DHT22;68007;51.312;12.372;2023-04-24T15:33:01;14.20;71.40
3418;DHT22;68007;51.312;12.372;2023-04-24T15:35:28;14.20;70.80
3418;DHT22;68007;51.312;12.372;2023-04-24T15:37:56;14.20;70.40
3418;DHT22;68007;51.312;12.372;2023-04-24T15:40:24;14.30;70.50